createdAt,value
2018-08-16T00:00:39.056Z,8.20
2018-08-16T00:01:43.476Z,7.85
2018-08-16T00:03:38.334Z,7.28
2018-08-16T00:04:42.424Z,8.00
2018-08-16T00:05:48.058Z,8.53
2018-08-16T00:06:52.047Z,8.13
2018-08-16T00:07:56.330Z,7.90
2018-08-16T00:09:01.623Z,7.95
2018-08-16T00:10:10.025Z,7.90
2018-08-16T00:11:14.219Z,7.47
2018-08-16T00:12:18.508Z,8.48
2018-08-16T00:13:24.610Z,7.50
2018-08-16T00:14:28.694Z,7.87
2018-08-16T00:15:33.157Z,7.40
2018-08-16T00:16:37.386Z,7.47
2018-08-16T00:17:41.630Z,8.70
2018-08-16T00:18:45.940Z,7.87
2018-08-16T00:19:50.112Z,9.08
2018-08-16T00:20:54.548Z,8.48
2018-08-16T00:22:00.036Z,8.58
2018-08-16T00:23:04.210Z,8.60
2018-08-16T00:24:08.282Z,8.15
2018-08-16T00:25:13.265Z,8.73
2018-08-16T00:26:17.511Z,9.50
2018-08-16T00:27:21.844Z,7.20
2018-08-16T00:28:26.561Z,7.50
2018-08-16T00:29:30.765Z,7.60
2018-08-16T00:30:37.021Z,8.55
2018-08-16T00:31:42.470Z,8.20
2018-08-16T00:32:47.466Z,7.30
2018-08-16T00:33:51.537Z,8.53
2018-08-16T00:34:56.595Z,7.65
2018-08-16T00:36:00.873Z,8.63
2018-08-16T00:37:05.794Z,8.83
2018-08-16T00:38:10.034Z,8.25
2018-08-16T00:39:18.453Z,10.93
2018-08-16T00:40:23.305Z,11.15
2018-08-16T00:41:27.658Z,10.90
2018-08-16T00:42:34.741Z,10.20
2018-08-16T00:43:38.886Z,10.25
2018-08-16T00:44:43.419Z,10.35
2018-08-16T00:45:47.554Z,9.40
2018-08-16T00:46:51.932Z,9.70
2018-08-16T00:47:56.139Z,9.05
2018-08-16T00:49:04.124Z,10.30
2018-08-16T00:50:10.374Z,9.65
2018-08-16T00:51:14.396Z,9.78
2018-08-16T00:52:18.752Z,9.98
2018-08-16T00:53:23.680Z,10.13
2018-08-16T00:54:27.652Z,9.68
2018-08-16T00:55:32.051Z,10.45
2018-08-16T00:56:37.609Z,9.28
2018-08-16T00:57:42.000Z,9.00
2018-08-16T00:58:46.103Z,8.15
2018-08-16T00:59:50.322Z,8.68
2018-08-16T01:00:54.709Z,7.67
2018-08-16T01:01:58.776Z,9.15
2018-08-16T01:03:03.092Z,8.58
2018-08-16T01:04:07.768Z,8.60
2018-08-16T01:05:12.336Z,8.25
2018-08-16T01:06:16.644Z,8.03
2018-08-16T01:07:20.973Z,8.48
2018-08-16T01:08:24.956Z,8.70
2018-08-16T01:09:28.939Z,8.30
2018-08-16T01:10:33.205Z,9.45
2018-08-16T01:11:38.854Z,9.18
2018-08-16T01:12:43.615Z,9.70
2018-08-16T01:13:47.500Z,8.70
2018-08-16T01:14:52.299Z,9.05
2018-08-16T01:15:56.411Z,8.95
2018-08-16T01:17:00.965Z,9.70
2018-08-16T01:18:05.471Z,9.95
2018-08-16T01:19:09.991Z,10.95
2018-08-16T01:20:14.379Z,10.32
2018-08-16T01:21:18.511Z,9.20
2018-08-16T01:22:23.803Z,10.88
2018-08-16T01:23:28.499Z,10.50
2018-08-16T01:24:32.876Z,10.40
2018-08-16T01:25:37.316Z,8.35
2018-08-16T01:26:41.408Z,9.98
2018-08-16T01:27:45.244Z,9.50
2018-08-16T01:28:49.215Z,9.90
2018-08-16T01:29:53.091Z,8.90
2018-08-16T01:30:56.952Z,9.28
2018-08-16T01:32:00.921Z,10.35
2018-08-16T01:33:06.132Z,9.73
2018-08-16T01:34:10.619Z,8.85
2018-08-16T01:35:14.501Z,8.00
2018-08-16T01:36:19.032Z,9.25
2018-08-16T01:37:23.271Z,9.23
2018-08-16T01:38:28.386Z,8.58
2018-08-16T01:39:32.494Z,8.15
2018-08-16T01:40:36.602Z,8.93
2018-08-16T01:41:40.998Z,10.08
2018-08-16T01:42:44.835Z,9.55
2018-08-16T01:43:49.687Z,9.48
2018-08-16T01:44:53.575Z,8.50
2018-08-16T01:45:57.756Z,8.65
2018-08-16T01:47:02.345Z,10.40
2018-08-16T01:48:07.165Z,8.85
2018-08-16T01:49:38.511Z,9.45
2018-08-16T01:50:42.640Z,8.78
2018-08-16T01:51:47.107Z,7.90
2018-08-16T01:52:51.795Z,8.83
2018-08-16T01:53:56.277Z,8.33
2018-08-16T01:55:00.305Z,9.50
2018-08-16T01:56:04.581Z,7.95
2018-08-16T01:57:08.733Z,8.40
2018-08-16T01:58:13.341Z,7.45
2018-08-16T01:59:19.055Z,7.62
2018-08-16T02:00:23.325Z,9.63
2018-08-16T02:01:27.616Z,9.20
2018-08-16T02:02:32.415Z,9.10
2018-08-16T02:03:36.481Z,8.60
2018-08-16T02:04:40.474Z,8.00
2018-08-16T02:05:45.309Z,8.50
2018-08-16T02:06:50.385Z,8.60
2018-08-16T02:07:54.308Z,9.65
2018-08-16T02:08:58.364Z,8.10
2018-08-16T02:10:02.631Z,9.53
2018-08-16T02:11:06.722Z,8.15
2018-08-16T02:12:10.568Z,8.83
2018-08-16T02:13:14.978Z,8.28
2018-08-16T02:14:19.723Z,8.93
2018-08-16T02:15:24.086Z,8.78
2018-08-16T02:16:28.544Z,9.10
2018-08-16T02:17:32.372Z,9.63
2018-08-16T02:18:36.313Z,9.68
2018-08-16T02:19:40.206Z,7.90
2018-08-16T02:20:44.055Z,10.40
2018-08-16T02:21:49.122Z,10.03
2018-08-16T02:22:53.118Z,8.63
2018-08-16T02:23:57.022Z,8.98
2018-08-16T02:25:01.166Z,10.20
2018-08-16T02:26:06.044Z,8.88
2018-08-16T02:27:10.472Z,8.60
2018-08-16T02:28:15.715Z,9.80
2018-08-16T02:29:19.826Z,9.88
2018-08-16T02:30:25.674Z,9.70
2018-08-16T02:31:29.753Z,10.32
2018-08-16T02:32:33.615Z,9.63
2018-08-16T02:33:37.814Z,9.93
2018-08-16T02:34:42.056Z,9.25
2018-08-16T02:35:46.292Z,10.00
2018-08-16T02:36:50.219Z,9.78
2018-08-16T02:37:54.204Z,8.60
2018-08-16T02:38:58.384Z,9.33
2018-08-16T02:40:02.752Z,8.80
2018-08-16T02:41:07.229Z,10.40
2018-08-16T02:42:11.149Z,9.33
2018-08-16T02:43:15.784Z,9.28
2018-08-16T02:44:20.728Z,9.38
2018-08-16T02:45:24.746Z,8.13
2018-08-16T02:46:28.881Z,9.55
2018-08-16T02:47:32.999Z,9.95
2018-08-16T02:48:37.234Z,10.35
2018-08-16T02:49:41.190Z,8.93
2018-08-16T02:50:45.333Z,10.68
2018-08-16T02:51:50.550Z,9.75
2018-08-16T02:52:54.487Z,9.15
2018-08-16T02:53:58.500Z,8.50
2018-08-16T02:55:02.440Z,8.78
2018-08-16T02:56:06.504Z,8.90
2018-08-16T02:57:10.471Z,8.45
2018-08-16T02:58:14.761Z,8.40
2018-08-16T02:59:20.001Z,9.78
2018-08-16T03:00:24.643Z,8.68
2018-08-16T03:01:28.522Z,8.13
2018-08-16T03:02:32.456Z,10.15
2018-08-16T03:03:36.559Z,8.48
2018-08-16T03:04:40.496Z,8.15
2018-08-16T03:05:44.529Z,8.40
2018-08-16T03:06:49.876Z,9.65
2018-08-16T03:07:54.993Z,8.03
2018-08-16T03:08:59.111Z,8.93
2018-08-16T03:10:03.058Z,8.53
2018-08-16T03:11:07.447Z,8.65
2018-08-16T03:12:11.619Z,8.03
2018-08-16T03:13:16.309Z,8.35
2018-08-16T03:14:20.420Z,8.40
2018-08-16T03:15:24.282Z,8.35
2018-08-16T03:16:28.152Z,8.48
2018-08-16T03:17:32.071Z,8.70
2018-08-16T03:18:37.173Z,8.25
2018-08-16T03:19:41.211Z,8.53
2018-08-16T03:20:45.408Z,7.80
2018-08-16T03:21:50.534Z,8.50
2018-08-16T03:22:54.428Z,8.70
2018-08-16T03:23:58.876Z,7.95
2018-08-16T03:25:03.198Z,8.25
2018-08-16T03:26:07.506Z,8.48
2018-08-16T03:27:11.588Z,7.87
2018-08-16T03:28:15.726Z,9.38
2018-08-16T03:29:20.854Z,8.03
2018-08-16T03:30:25.173Z,8.48
2018-08-16T03:31:29.165Z,8.70
2018-08-16T03:32:33.048Z,9.28
2018-08-16T03:33:36.903Z,9.33
2018-08-16T03:34:40.834Z,8.48
2018-08-16T03:35:44.688Z,9.23
2018-08-16T03:36:49.783Z,8.73
2018-08-16T03:37:53.779Z,8.28
2018-08-16T03:38:57.657Z,8.13
2018-08-16T03:40:01.943Z,7.65
2018-08-16T03:43:12.574Z,6.90
2018-08-16T03:44:18.546Z,8.10
2018-08-16T03:45:22.493Z,7.90
2018-08-16T03:46:27.036Z,8.35
2018-08-16T03:47:30.857Z,7.00
2018-08-16T03:48:35.217Z,7.65
2018-08-16T03:49:39.359Z,8.25
2018-08-16T03:50:43.314Z,8.43
2018-08-16T03:51:48.393Z,8.20
2018-08-16T03:52:53.162Z,8.45
2018-08-16T03:53:57.049Z,9.48
2018-08-16T03:55:00.900Z,9.25
2018-08-16T03:56:05.845Z,8.10
2018-08-16T03:57:09.727Z,9.33
2018-08-16T03:58:13.721Z,8.58
2018-08-16T03:59:19.182Z,8.08
2018-08-16T04:00:23.413Z,8.33
2018-08-16T04:01:27.261Z,8.60
2018-08-16T04:02:31.132Z,9.38
2018-08-16T04:03:35.225Z,8.60
2018-08-16T04:04:39.696Z,8.38
2018-08-16T04:05:43.550Z,8.55
2018-08-16T04:06:49.141Z,8.85
2018-08-16T04:07:54.628Z,8.60
2018-08-16T04:08:58.757Z,9.78
2018-08-16T04:10:03.523Z,8.53
2018-08-16T04:11:07.831Z,7.40
2018-08-16T04:12:12.898Z,8.80
2018-08-16T04:13:17.125Z,8.73
2018-08-16T04:14:21.768Z,8.98
2018-08-16T04:15:27.165Z,8.70
2018-08-16T04:16:32.604Z,9.10
2018-08-16T04:17:37.860Z,8.73
2018-08-16T04:18:42.723Z,9.35
2018-08-16T04:19:47.112Z,8.90
2018-08-16T04:20:51.108Z,9.00
2018-08-16T04:21:55.172Z,10.00
2018-08-16T04:22:58.972Z,9.15
2018-08-16T04:24:02.813Z,9.08
2018-08-16T04:25:07.061Z,8.68
2018-08-16T04:26:11.400Z,9.28
2018-08-16T04:27:15.289Z,10.00
2018-08-16T04:28:19.151Z,8.58
2018-08-16T04:29:27.324Z,8.48
2018-08-16T04:30:37.670Z,9.53
2018-08-16T04:31:42.724Z,9.10
2018-08-16T04:32:46.758Z,8.90
2018-08-16T04:33:50.784Z,8.53
2018-08-16T04:34:54.803Z,8.95
2018-08-16T04:35:59.685Z,9.00
2018-08-16T04:37:04.040Z,10.32
2018-08-16T04:38:08.677Z,8.35
2018-08-16T04:39:13.190Z,9.30
2018-08-16T04:40:17.183Z,9.25
2018-08-16T04:41:21.753Z,9.18
2018-08-16T04:42:25.583Z,9.43
2018-08-16T04:43:29.595Z,9.70
2018-08-16T04:44:34.007Z,10.18
2018-08-16T04:45:37.930Z,10.60
2018-08-16T04:46:42.655Z,10.95
2018-08-16T04:47:46.740Z,10.55
2018-08-16T04:48:50.897Z,9.40
2018-08-16T04:49:55.442Z,9.28
2018-08-16T04:50:59.394Z,10.15
2018-08-16T04:52:03.472Z,10.35
2018-08-16T04:53:07.801Z,10.28
2018-08-16T04:54:11.692Z,9.78
2018-08-16T04:55:16.615Z,9.90
2018-08-16T04:56:20.799Z,11.55
2018-08-16T04:57:24.676Z,10.70
2018-08-16T04:58:29.204Z,9.35
2018-08-16T04:59:33.301Z,10.72
2018-08-16T05:00:37.397Z,10.15
2018-08-16T05:01:41.317Z,9.93
2018-08-16T05:02:46.298Z,10.30
2018-08-16T05:03:50.221Z,10.32
2018-08-16T05:04:54.130Z,10.63
2018-08-16T05:05:58.136Z,10.10
2018-08-16T05:07:02.222Z,10.80
2018-08-16T05:08:06.661Z,9.85
2018-08-16T05:09:10.842Z,10.75
2018-08-16T05:10:14.956Z,9.25
2018-08-16T05:11:19.145Z,10.65
2018-08-16T05:12:23.158Z,11.97
2018-08-16T05:13:27.064Z,10.65
2018-08-16T05:14:31.249Z,10.15
2018-08-16T05:15:35.098Z,10.30
2018-08-16T05:16:39.500Z,10.63
2018-08-16T05:17:43.462Z,9.83
2018-08-16T05:18:47.590Z,11.10
2018-08-16T05:19:51.504Z,10.15
2018-08-16T05:20:56.269Z,11.25
2018-08-16T05:22:02.187Z,10.93
2018-08-16T05:23:06.149Z,9.90
2018-08-16T05:24:10.041Z,11.12
2018-08-16T05:25:14.185Z,10.88
2018-08-16T05:26:18.218Z,9.20
2018-08-16T05:27:22.142Z,9.80
2018-08-16T05:28:26.280Z,11.30
2018-08-16T05:29:30.931Z,11.35
2018-08-16T05:30:34.979Z,10.43
2018-08-16T05:31:39.055Z,10.82
2018-08-16T05:32:42.931Z,9.78
2018-08-16T05:33:46.794Z,10.98
2018-08-16T05:34:50.999Z,9.88
2018-08-16T05:35:56.537Z,9.90
2018-08-16T05:37:01.805Z,10.25
2018-08-16T05:38:05.756Z,9.98
2018-08-16T05:39:11.176Z,9.70
2018-08-16T05:40:15.274Z,10.58
2018-08-16T05:41:19.756Z,9.25
2018-08-16T05:42:23.639Z,10.32
2018-08-16T05:43:27.735Z,10.50
2018-08-16T05:44:33.786Z,10.75
2018-08-16T05:45:38.750Z,10.93
2018-08-16T05:46:43.417Z,11.70
2018-08-16T05:47:47.301Z,11.43
2018-08-16T05:48:51.311Z,11.38
2018-08-16T05:49:56.260Z,12.30
2018-08-16T05:51:00.304Z,11.40
2018-08-16T05:52:04.369Z,10.70
2018-08-16T05:53:09.529Z,11.35
2018-08-16T05:54:14.349Z,11.10
2018-08-16T05:55:18.472Z,11.97
2018-08-16T05:56:22.431Z,12.37
2018-08-16T05:57:28.170Z,10.75
2018-08-16T05:58:32.422Z,12.30
2018-08-16T05:59:37.998Z,11.15
2018-08-16T06:00:42.262Z,11.15
2018-08-16T06:01:46.290Z,10.15
2018-08-16T06:03:11.081Z,11.35
2018-08-16T06:04:15.014Z,10.35
2018-08-16T06:05:19.248Z,10.58
2018-08-16T06:06:23.366Z,10.75
2018-08-16T06:07:27.477Z,11.15
2018-08-16T06:08:31.513Z,11.25
2018-08-16T06:09:35.753Z,13.25
2018-08-16T06:10:40.049Z,10.98
2018-08-16T06:11:44.658Z,11.85
2018-08-16T06:12:48.600Z,12.50
2018-08-16T06:13:53.008Z,13.65
2018-08-16T06:14:56.985Z,11.08
2018-08-16T06:16:02.620Z,11.85
2018-08-16T06:17:08.328Z,13.15
2018-08-16T06:18:13.468Z,13.32
2018-08-16T06:19:20.546Z,15.15
2018-08-16T06:20:24.653Z,14.40
2018-08-16T06:21:28.511Z,12.50
2018-08-16T06:22:32.388Z,12.15
2018-08-16T06:23:36.385Z,14.35
2018-08-16T06:24:41.606Z,12.28
2018-08-16T06:25:46.264Z,13.00
2018-08-16T06:26:51.751Z,12.85
2018-08-16T06:27:56.336Z,12.93
2018-08-16T06:29:01.323Z,12.58
2018-08-16T06:30:08.271Z,11.88
2018-08-16T06:31:12.691Z,13.98
2018-08-16T06:32:16.730Z,12.80
2018-08-16T06:33:20.732Z,11.83
2018-08-16T06:34:25.668Z,12.68
2018-08-16T06:37:01.384Z,11.85
2018-08-16T06:38:05.472Z,11.97
2018-08-16T06:39:11.568Z,11.00
2018-08-16T06:40:17.205Z,12.28
2018-08-16T06:41:21.141Z,13.05
2018-08-16T06:42:25.074Z,11.60
2018-08-16T06:43:30.712Z,11.90
2018-08-16T06:44:34.608Z,13.80
2018-08-16T06:45:39.486Z,13.32
2018-08-16T06:46:45.028Z,12.60
2018-08-16T06:47:50.129Z,12.35
2018-08-16T06:48:54.381Z,12.43
2018-08-16T06:49:58.357Z,12.90
2018-08-16T06:51:03.065Z,13.10
2018-08-16T06:52:07.364Z,13.65
2018-08-16T06:53:12.347Z,12.93
2018-08-16T06:54:16.689Z,16.77
2018-08-16T06:55:22.424Z,16.80
2018-08-16T06:56:26.385Z,18.50
2018-08-16T06:57:30.321Z,15.80
2018-08-16T06:58:34.389Z,17.55
2018-08-16T06:59:38.277Z,16.75
2018-08-16T07:00:42.383Z,14.85
2018-08-16T07:01:46.308Z,14.98
2018-08-16T07:02:50.328Z,15.13
2018-08-16T07:03:55.188Z,15.10
2018-08-16T07:04:59.176Z,14.83
2018-08-16T07:06:04.752Z,13.83
2018-08-16T07:07:09.020Z,13.90
2018-08-16T07:08:14.219Z,13.93
2018-08-16T07:09:22.216Z,13.75
2018-08-16T07:10:26.201Z,13.05
2018-08-16T07:11:30.424Z,13.13
2018-08-16T07:12:34.815Z,13.60
2018-08-16T07:13:38.908Z,12.98
2018-08-16T07:14:43.132Z,12.40
2018-08-16T07:15:47.560Z,13.25
2018-08-16T07:16:52.378Z,12.50
2018-08-16T07:17:57.170Z,12.13
2018-08-16T07:19:03.743Z,12.03
2018-08-16T07:20:11.551Z,12.53
2018-08-16T07:21:15.821Z,13.30
2018-08-16T07:22:20.177Z,11.73
2018-08-16T07:23:25.260Z,13.38
2018-08-16T07:24:29.659Z,13.68
2018-08-16T07:25:33.725Z,13.18
2018-08-16T07:26:37.781Z,14.05
2018-08-16T07:27:42.601Z,14.40
2018-08-16T07:28:46.528Z,13.43
2018-08-16T07:29:50.892Z,13.15
2018-08-16T07:30:54.963Z,13.70
2018-08-16T07:32:02.772Z,13.20
2018-08-16T07:33:23.157Z,12.53
2018-08-16T07:34:28.367Z,11.88
2018-08-16T07:35:34.798Z,14.30
2018-08-16T07:36:39.826Z,13.80
2018-08-16T07:37:45.961Z,13.62
2018-08-16T07:38:51.553Z,12.90
2018-08-16T07:39:55.686Z,12.15
2018-08-16T07:41:03.591Z,12.65
2018-08-16T07:42:07.765Z,12.73
2018-08-16T07:43:12.378Z,13.53
2018-08-16T07:44:16.613Z,12.70
2018-08-16T07:45:21.284Z,11.97
2018-08-16T07:46:25.764Z,13.35
2018-08-16T07:47:29.813Z,13.40
2018-08-16T07:48:35.747Z,12.20
2018-08-16T07:49:40.463Z,13.72
2018-08-16T07:50:45.467Z,13.25
2018-08-16T07:51:50.740Z,12.93
2018-08-16T07:52:54.798Z,13.10
2018-08-16T07:53:58.977Z,12.93
2018-08-16T07:55:02.998Z,12.80
2018-08-16T07:56:07.266Z,13.40
2018-08-16T07:57:11.285Z,13.05
2018-08-16T07:58:15.819Z,12.65
2018-08-16T07:59:21.237Z,12.50
2018-08-16T08:00:25.361Z,12.82
2018-08-16T08:01:29.559Z,13.35
2018-08-16T08:02:34.599Z,13.18
2018-08-16T08:03:38.538Z,12.93
2018-08-16T08:04:42.907Z,12.20
2018-08-16T08:05:46.934Z,10.70
2018-08-16T08:06:50.961Z,13.30
2018-08-16T08:07:55.329Z,13.32
2018-08-16T08:08:59.630Z,12.80
2018-08-16T08:10:03.737Z,13.88
2018-08-16T08:11:08.804Z,15.03
2018-08-16T08:12:13.269Z,13.93
2018-08-16T08:13:17.748Z,12.55
2018-08-16T08:14:24.821Z,13.43
2018-08-16T08:15:29.027Z,12.20
2018-08-16T08:16:34.427Z,11.65
2018-08-16T08:17:41.261Z,13.85
2018-08-16T08:18:48.243Z,12.37
2018-08-16T08:19:52.632Z,12.47
2018-08-16T08:20:56.760Z,13.10
2018-08-16T08:22:01.086Z,10.68
2018-08-16T08:23:12.442Z,10.78
2018-08-16T08:24:18.833Z,13.00
2018-08-16T08:25:23.605Z,12.03
2018-08-16T08:26:28.700Z,12.85
2018-08-16T08:27:34.438Z,11.83
2018-08-16T08:28:40.229Z,12.53
2018-08-16T08:29:46.805Z,13.03
2018-08-16T08:30:51.300Z,11.88
2018-08-16T08:32:02.209Z,11.73
2018-08-16T08:33:07.157Z,12.80
2018-08-16T08:34:13.394Z,12.25
2018-08-16T08:35:21.810Z,11.73
2018-08-16T08:36:50.102Z,12.45
2018-08-16T08:38:21.156Z,11.25
2018-08-16T08:39:38.707Z,12.70
2018-08-16T08:40:45.833Z,12.40
2018-08-16T08:41:52.228Z,11.15
2018-08-16T08:43:10.320Z,11.22
2018-08-16T08:44:30.236Z,10.93
2018-08-16T08:45:40.444Z,10.00
2018-08-16T08:46:49.060Z,11.63
2018-08-16T08:48:00.634Z,11.15
2018-08-16T08:49:04.633Z,11.60
2018-08-16T08:50:09.815Z,11.73
2018-08-16T08:51:13.803Z,12.95
2018-08-16T08:52:17.997Z,11.38
2018-08-16T08:53:33.195Z,12.03
2018-08-16T08:54:53.710Z,12.00
2018-08-16T08:56:09.817Z,10.45
2018-08-16T08:57:24.834Z,10.50
2018-08-16T08:58:40.384Z,11.43
2018-08-16T08:59:47.325Z,11.70
2018-08-16T09:00:51.341Z,11.75
2018-08-16T09:01:58.385Z,10.90
2018-08-16T09:03:05.593Z,11.30
2018-08-16T09:04:10.319Z,11.08
2018-08-16T09:05:14.406Z,11.93
2018-08-16T09:06:18.714Z,10.15
2018-08-16T09:07:25.007Z,10.38
2018-08-16T09:08:29.365Z,9.80
2018-08-16T09:09:35.988Z,10.90
2018-08-16T09:10:51.884Z,10.08
2018-08-16T09:12:17.061Z,9.80
2018-08-16T09:13:35.249Z,11.10
2018-08-16T09:14:51.046Z,9.80
2018-08-16T09:15:55.840Z,8.73
2018-08-16T09:17:03.186Z,8.78
2018-08-16T09:18:11.884Z,9.35
2018-08-16T09:19:16.181Z,9.35
2018-08-16T09:20:26.006Z,9.90
2018-08-16T09:21:36.504Z,10.10
2018-08-16T09:22:49.751Z,10.32
2018-08-16T09:23:58.703Z,12.43
2018-08-16T09:25:05.251Z,9.58
2018-08-16T09:26:15.330Z,10.15
2018-08-16T09:27:19.296Z,12.40
2018-08-16T09:28:24.269Z,10.25
2018-08-16T09:30:15.387Z,11.15
2018-08-16T09:31:31.652Z,10.55
2018-08-16T09:32:48.406Z,9.78
2018-08-16T09:34:05.344Z,10.93
2018-08-16T09:35:14.164Z,10.08
2018-08-16T09:36:27.827Z,8.53
2018-08-16T09:37:37.702Z,9.45
2018-08-16T09:38:46.581Z,9.73
2018-08-16T09:39:55.300Z,9.73
2018-08-16T09:41:04.729Z,11.00
2018-08-16T09:42:12.801Z,10.18
2018-08-16T09:43:21.181Z,8.00
2018-08-16T09:44:31.906Z,8.80
2018-08-16T09:45:51.690Z,9.08
2018-08-16T09:47:13.799Z,8.20
2018-08-16T09:48:32.316Z,8.65
2018-08-16T09:49:57.512Z,8.05
2018-08-16T09:51:19.896Z,7.90
2018-08-16T09:52:25.793Z,8.80
2018-08-16T09:53:31.229Z,9.60
2018-08-16T09:54:39.119Z,10.10
2018-08-16T09:55:45.727Z,10.75
2018-08-16T09:56:50.830Z,11.40
2018-08-16T09:57:56.893Z,9.38
2018-08-16T09:59:01.197Z,9.98
2018-08-16T10:00:16.740Z,15.85
2018-08-16T10:01:24.418Z,11.28
2018-08-16T10:02:31.734Z,11.90
2018-08-16T10:03:37.736Z,10.28
2018-08-16T10:04:42.495Z,9.70
2018-08-16T10:05:49.031Z,9.95
2018-08-16T10:06:54.738Z,10.55
2018-08-16T10:08:09.063Z,11.25
2018-08-16T10:09:21.590Z,9.73
2018-08-16T10:10:28.254Z,10.08
2018-08-16T10:11:34.347Z,10.10
2018-08-16T10:12:39.135Z,9.55
2018-08-16T10:13:43.183Z,10.25
2018-08-16T10:14:48.184Z,9.03
2018-08-16T10:15:54.119Z,10.75
2018-08-16T10:17:00.265Z,9.40
2018-08-16T10:18:05.982Z,10.13
2018-08-16T10:19:10.263Z,9.10
2018-08-16T10:20:14.874Z,10.08
2018-08-16T10:21:21.318Z,9.43
2018-08-16T10:22:26.321Z,8.95
2018-08-16T10:23:32.804Z,9.60
2018-08-16T10:24:39.284Z,10.85
2018-08-16T10:25:43.644Z,8.70
2018-08-16T10:26:48.356Z,10.10
2018-08-16T10:28:00.789Z,9.48
2018-08-16T10:29:06.161Z,10.03
2018-08-16T10:30:25.419Z,10.35
2018-08-16T10:31:42.114Z,9.20
2018-08-16T10:32:53.078Z,9.30
2018-08-16T10:34:09.080Z,8.83
2018-08-16T10:35:13.415Z,9.53
2018-08-16T10:36:20.885Z,8.53
2018-08-16T10:37:25.238Z,9.65
2018-08-16T10:38:31.725Z,9.90
2018-08-16T10:39:40.938Z,10.80
2018-08-16T10:40:45.668Z,9.30
2018-08-16T10:41:51.372Z,8.63
2018-08-16T10:42:57.037Z,8.20
2018-08-16T10:44:01.543Z,8.13
2018-08-16T10:45:25.473Z,7.75
2018-08-16T10:46:34.196Z,7.90
2018-08-16T10:47:58.040Z,8.05
2018-08-16T10:49:20.088Z,7.80
2018-08-16T10:50:45.384Z,7.72
2018-08-16T10:52:06.957Z,8.60
2018-08-16T10:53:14.102Z,8.28
2018-08-16T10:54:37.168Z,8.90
2018-08-16T10:55:47.037Z,8.73
2018-08-16T10:56:58.250Z,8.38
2018-08-16T10:58:07.623Z,10.00
2018-08-16T10:59:16.078Z,9.40
2018-08-16T11:00:35.608Z,10.00
2018-08-16T11:01:47.546Z,10.18
2018-08-16T11:02:57.409Z,9.20
2018-08-16T11:04:04.091Z,9.33
2018-08-16T11:05:13.229Z,8.45
2018-08-16T11:06:18.791Z,11.25
2018-08-16T11:07:34.800Z,8.33
2018-08-16T11:08:40.884Z,8.88
2018-08-16T11:09:45.445Z,10.15
2018-08-16T11:10:54.343Z,7.85
2018-08-16T11:12:16.264Z,8.05
2018-08-16T11:13:29.337Z,8.20
2018-08-16T11:14:50.347Z,7.78
2018-08-16T11:15:58.766Z,9.25
2018-08-16T11:18:28.534Z,7.80
2018-08-16T11:19:35.901Z,8.25
2018-08-16T11:22:47.476Z,7.67
2018-08-16T11:24:04.087Z,8.00
2018-08-16T11:29:02.096Z,8.45
2018-08-16T11:30:06.492Z,8.35
2018-08-16T11:31:13.195Z,7.95
2018-08-16T11:32:19.050Z,7.70
2018-08-16T11:33:31.074Z,7.65
2018-08-16T11:34:35.837Z,8.00
2018-08-16T11:35:42.738Z,8.50
2018-08-16T11:36:48.781Z,8.10
2018-08-16T11:37:53.859Z,7.83
2018-08-16T11:44:22.182Z,7.22
2018-08-16T11:45:27.302Z,7.10
2018-08-16T11:46:34.001Z,6.58
2018-08-16T11:47:38.384Z,7.10
2018-08-16T11:48:42.606Z,6.45
2018-08-16T11:49:51.305Z,6.85
2018-08-16T11:50:55.487Z,6.08
2018-08-16T11:52:05.698Z,7.15
2018-08-16T11:53:09.689Z,7.20
2018-08-16T11:54:15.175Z,8.28
2018-08-16T11:55:19.234Z,7.20
2018-08-16T11:56:26.037Z,7.58
2018-08-16T11:57:33.492Z,6.67
2018-08-16T11:58:37.407Z,6.62
2018-08-16T11:59:48.576Z,6.62
2018-08-16T12:00:57.500Z,6.40
2018-08-16T12:02:09.425Z,6.22
2018-08-16T12:03:15.455Z,6.35
2018-08-16T12:04:20.776Z,6.40
2018-08-16T12:05:24.933Z,7.00
2018-08-16T12:06:29.151Z,6.47
2018-08-16T12:07:33.370Z,6.83
2018-08-16T12:08:38.599Z,6.17
2018-08-16T12:09:50.326Z,8.08
2018-08-16T12:11:04.753Z,6.60
2018-08-16T12:12:21.176Z,6.47
2018-08-16T12:14:52.235Z,5.40
2018-08-16T12:15:57.220Z,5.58
2018-08-16T12:17:01.703Z,6.10
2018-08-16T12:19:08.788Z,9.40
2018-08-16T12:20:15.226Z,8.50
2018-08-16T12:21:27.342Z,8.60
2018-08-16T12:22:31.739Z,18.00
2018-08-16T12:23:39.659Z,13.60
2018-08-16T12:24:44.382Z,10.75
2018-08-16T12:25:49.175Z,8.95
2018-08-16T12:26:54.216Z,12.40
2018-08-16T12:28:00.437Z,16.32
2018-08-16T12:29:08.268Z,12.33
2018-08-16T12:30:18.105Z,12.23
2018-08-16T12:31:30.824Z,6.90
2018-08-16T12:32:36.284Z,6.80
2018-08-16T12:34:01.669Z,6.85
2018-08-16T12:35:07.579Z,7.50
2018-08-16T12:36:13.416Z,8.18
2018-08-16T12:37:19.455Z,10.85
2018-08-16T12:38:27.674Z,9.98
2018-08-16T12:39:34.717Z,8.93
2018-08-16T12:40:40.157Z,7.70
2018-08-16T12:41:48.370Z,8.40
2018-08-16T12:43:09.536Z,9.00
2018-08-16T12:45:58.101Z,8.00
2018-08-16T12:49:56.986Z,7.58
2018-08-16T12:51:53.780Z,9.15
2018-08-16T12:53:05.854Z,12.20
2018-08-16T12:54:15.246Z,8.30
2018-08-16T12:55:21.957Z,10.28
2018-08-16T12:56:26.587Z,8.38
2018-08-16T12:57:33.286Z,8.60
2018-08-16T12:58:39.920Z,7.85
2018-08-16T12:59:50.270Z,8.23
2018-08-16T13:00:59.093Z,8.25
2018-08-16T13:02:10.708Z,7.75
2018-08-16T13:03:20.815Z,7.22
2018-08-16T13:04:27.950Z,9.25
2018-08-16T13:05:35.106Z,8.13
2018-08-16T13:06:44.820Z,8.43
2018-08-16T13:07:49.569Z,7.55
2018-08-16T13:08:57.742Z,6.87
2018-08-16T13:10:13.644Z,7.17
2018-08-16T13:11:21.064Z,7.92
2018-08-16T13:12:27.590Z,7.70
2018-08-16T13:13:35.289Z,7.25
2018-08-16T13:14:54.658Z,9.50
2018-08-16T13:16:10.439Z,8.20
2018-08-16T13:17:26.161Z,7.53
2018-08-16T13:18:32.454Z,7.42
2018-08-16T13:19:40.416Z,9.65
2018-08-16T13:23:02.793Z,7.60
2018-08-16T13:24:16.144Z,7.92
2018-08-16T13:25:43.279Z,7.33
2018-08-16T13:26:58.268Z,8.25
2018-08-16T13:28:13.138Z,8.10
2018-08-16T13:29:27.034Z,7.00
2018-08-16T13:30:41.116Z,8.05
2018-08-16T13:31:56.422Z,7.17
2018-08-16T13:33:17.693Z,7.92
2018-08-16T13:34:30.309Z,8.18
2018-08-16T13:36:08.479Z,7.17
2018-08-16T13:37:24.150Z,7.03
2018-08-16T13:38:31.045Z,6.12
2018-08-16T13:39:45.611Z,6.72
2018-08-16T13:42:33.522Z,6.70
2018-08-16T13:43:41.754Z,6.22
2018-08-16T13:45:03.677Z,7.22
2018-08-16T13:46:27.557Z,7.60
2018-08-16T13:47:52.209Z,6.50
2018-08-16T13:49:26.147Z,7.10
2018-08-16T13:50:32.166Z,7.20
2018-08-16T13:51:47.243Z,7.10
2018-08-16T13:53:05.134Z,6.20
2018-08-16T13:54:11.913Z,6.78
2018-08-16T13:55:16.709Z,7.28
2018-08-16T13:56:23.514Z,7.53
2018-08-16T13:57:28.280Z,8.80
2018-08-16T13:59:54.219Z,7.83
2018-08-16T14:01:02.210Z,8.45
2018-08-16T14:02:07.801Z,8.18
2018-08-16T14:03:15.470Z,7.78
2018-08-16T14:04:24.497Z,7.55
2018-08-16T14:05:31.593Z,8.20
2018-08-16T14:06:57.074Z,8.00
2018-08-16T14:08:14.652Z,7.50
2018-08-16T14:09:39.542Z,7.97
2018-08-16T14:10:47.775Z,8.30
2018-08-16T14:11:59.767Z,7.92
2018-08-16T14:13:06.248Z,7.97
2018-08-16T14:14:31.786Z,8.45
2018-08-16T14:15:38.444Z,9.75
2018-08-16T14:17:01.886Z,11.12
2018-08-16T14:18:53.673Z,8.05
2018-08-16T14:20:22.741Z,9.80
2018-08-16T14:22:00.870Z,7.37
2018-08-16T14:29:23.556Z,7.67
2018-08-16T14:30:54.637Z,7.80
2018-08-16T14:32:04.854Z,7.78
2018-08-16T14:33:13.021Z,7.55
2018-08-16T14:34:50.556Z,8.05
2018-08-16T14:36:28.650Z,7.50
2018-08-16T14:37:41.748Z,7.87
2018-08-16T14:39:14.168Z,7.12
2018-08-16T14:40:31.197Z,5.95
2018-08-16T14:41:36.176Z,7.17
2018-08-16T14:42:46.326Z,7.37
2018-08-16T14:44:04.119Z,7.47
2018-08-16T14:46:13.708Z,7.30
2018-08-16T14:47:34.641Z,7.10
2018-08-16T14:52:13.907Z,9.18
2018-08-16T14:53:40.831Z,7.40
2018-08-16T14:55:04.505Z,7.90
2018-08-16T14:56:29.727Z,8.25
2018-08-16T14:57:44.302Z,9.13
2018-08-16T14:58:53.750Z,8.90
2018-08-16T14:59:58.176Z,8.08
2018-08-16T15:01:02.529Z,8.38
2018-08-16T15:02:07.178Z,7.85
2018-08-16T15:03:11.678Z,7.53
2018-08-16T15:04:25.808Z,6.90
2018-08-16T15:05:30.734Z,6.65
2018-08-16T15:06:40.233Z,8.08
2018-08-16T15:07:46.116Z,8.30
2018-08-16T15:08:51.847Z,6.97
2018-08-16T15:09:57.677Z,6.80
2018-08-16T15:11:02.106Z,7.47
2018-08-16T15:12:08.735Z,7.65
2018-08-16T15:13:14.281Z,7.25
2018-08-16T15:14:21.749Z,7.40
2018-08-16T15:15:30.575Z,6.97
2018-08-16T15:16:38.964Z,7.50
2018-08-16T15:17:47.209Z,7.53
2018-08-16T15:19:34.681Z,7.42
2018-08-16T15:20:39.429Z,6.97
2018-08-16T15:22:05.970Z,7.55
2018-08-16T15:23:10.896Z,6.25
2018-08-16T15:24:21.475Z,6.47
2018-08-16T15:25:25.734Z,6.47